createdAt,value
2019-01-25T00:00:40.865Z,63.63
2019-01-25T00:01:40.857Z,63.65
2019-01-25T00:02:40.839Z,63.52
2019-01-25T00:03:40.829Z,64.29
2019-01-25T00:04:40.847Z,64.29
2019-01-25T00:05:40.815Z,64.18
2019-01-25T00:06:40.806Z,63.87
2019-01-25T00:07:40.781Z,63.84
2019-01-25T00:08:40.772Z,64.29
2019-01-25T00:09:40.783Z,63.97
2019-01-25T00:10:40.758Z,64.29
2019-01-25T00:11:40.760Z,64.18
2019-01-25T00:12:40.746Z,64.18
2019-01-25T00:13:40.738Z,63.65
2019-01-25T00:14:40.760Z,63.76
2019-01-25T00:15:40.692Z,63.42
2019-01-25T00:16:40.681Z,63.34
2019-01-25T00:17:40.677Z,63.34
2019-01-25T00:18:40.663Z,63.34
2019-01-25T00:19:40.683Z,63.65
2019-01-25T00:20:40.647Z,63.45
2019-01-25T00:21:40.635Z,63.73
2019-01-25T00:22:40.683Z,63.76
2019-01-25T00:23:40.611Z,63.73
2019-01-25T00:24:40.625Z,63.45
2019-01-25T00:25:40.589Z,63.65
2019-01-25T00:26:40.578Z,64.18
2019-01-25T00:27:40.573Z,64.15
2019-01-25T00:28:40.591Z,64.18
2019-01-25T00:29:40.595Z,64.39
2019-01-25T00:30:40.536Z,63.76
2019-01-25T00:31:40.524Z,63.76
2019-01-25T00:32:40.518Z,63.34
2019-01-25T00:33:40.506Z,63.34
2019-01-25T00:34:40.490Z,63.23
2019-01-25T00:35:40.495Z,63.23
2019-01-25T00:36:40.503Z,63.34
2019-01-25T00:37:40.505Z,63.34
2019-01-25T00:38:40.444Z,63.55
2019-01-25T00:39:40.434Z,63.34
2019-01-25T00:40:42.005Z,63.45
2019-01-25T00:41:40.441Z,63.34
2019-01-25T00:42:40.403Z,63.34
2019-01-25T00:43:40.423Z,63.34
2019-01-25T00:44:40.381Z,63.52
2019-01-25T00:45:40.382Z,63.55
2019-01-25T00:46:40.371Z,63.45
2019-01-25T00:47:40.356Z,63.21
2019-01-25T00:48:40.378Z,63.13
2019-01-25T00:49:40.320Z,62.92
2019-01-25T00:50:40.341Z,62.99
2019-01-25T00:51:40.342Z,63.45
2019-01-25T00:52:40.288Z,63.21
2019-01-25T00:53:40.284Z,63.55
2019-01-25T00:54:40.282Z,63.52
2019-01-25T00:55:40.278Z,63.45
2019-01-25T00:56:40.246Z,63.65
2019-01-25T00:57:40.259Z,63.21
2019-01-25T00:58:40.224Z,63.55
2019-01-25T00:59:40.223Z,63.10
2019-01-25T01:00:40.230Z,63.23
2019-01-25T01:01:41.110Z,63.23
2019-01-25T01:02:40.182Z,62.89
2019-01-25T01:03:40.170Z,63.23
2019-01-25T01:04:40.161Z,63.45
2019-01-25T01:05:40.179Z,63.65
2019-01-25T01:06:40.138Z,63.45
2019-01-25T01:07:40.135Z,63.45
2019-01-25T01:08:40.120Z,63.34
2019-01-25T01:09:40.105Z,63.76
2019-01-25T01:10:40.096Z,63.76
2019-01-25T01:11:40.102Z,63.65
2019-01-25T01:12:40.070Z,63.21
2019-01-25T01:13:40.067Z,63.76
2019-01-25T01:14:40.049Z,63.34
2019-01-25T01:15:40.043Z,63.13
2019-01-25T01:16:40.046Z,63.13
2019-01-25T01:17:40.037Z,62.92
2019-01-25T01:18:40.009Z,62.82
2019-01-25T01:19:40.002Z,63.10
2019-01-25T01:20:39.982Z,63.45
2019-01-25T01:21:40.008Z,63.34
2019-01-25T01:22:39.965Z,63.34
2019-01-25T01:23:39.994Z,63.45
2019-01-25T01:24:39.951Z,63.10
2019-01-25T01:25:39.929Z,63.10
2019-01-25T01:26:39.941Z,63.45
2019-01-25T01:27:39.939Z,63.31
2019-01-25T01:28:39.911Z,63.45
2019-01-25T01:29:39.887Z,63.13
2019-01-25T01:30:39.874Z,63.23
2019-01-25T01:31:39.886Z,62.82
2019-01-25T01:32:39.851Z,63.65
2019-01-25T01:33:39.842Z,63.13
2019-01-25T01:34:39.842Z,63.34
2019-01-25T01:35:39.816Z,63.45
2019-01-25T01:36:39.839Z,63.23
2019-01-25T01:37:39.810Z,63.34
2019-01-25T01:38:39.785Z,62.71
2019-01-25T01:39:39.788Z,62.82
2019-01-25T01:40:39.761Z,62.82
2019-01-25T01:41:39.776Z,63.45
2019-01-25T01:42:39.775Z,63.34
2019-01-25T01:43:39.737Z,62.89
2019-01-25T01:44:39.724Z,62.92
2019-01-25T01:45:39.706Z,62.58
2019-01-25T01:46:39.738Z,63.23
2019-01-25T01:47:39.724Z,63.52
2019-01-25T01:48:39.681Z,62.71
2019-01-25T01:49:39.684Z,62.82
2019-01-25T01:50:39.654Z,62.89
2019-01-25T01:51:39.646Z,63.13
2019-01-25T01:52:39.680Z,63.42
2019-01-25T01:53:39.628Z,63.23
2019-01-25T01:54:39.608Z,63.23
2019-01-25T01:55:39.602Z,62.99
2019-01-25T01:56:39.622Z,62.82
2019-01-25T01:57:39.612Z,62.82
2019-01-25T01:58:39.568Z,63.45
2019-01-25T01:59:39.566Z,62.92
2019-01-25T02:00:39.564Z,63.45
2019-01-25T02:01:39.542Z,63.45
2019-01-25T02:02:39.542Z,63.45
2019-01-25T02:03:39.513Z,63.13
2019-01-25T02:04:39.561Z,63.23
2019-01-25T02:05:39.493Z,63.13
2019-01-25T02:06:39.483Z,63.21
2019-01-25T02:07:39.490Z,63.31
2019-01-25T02:08:39.494Z,63.23
2019-01-25T02:09:39.447Z,63.21
2019-01-25T02:10:39.435Z,63.02
2019-01-25T02:11:39.430Z,63.23
2019-01-25T02:12:39.434Z,63.21
2019-01-25T02:13:39.403Z,63.13
2019-01-25T02:14:39.397Z,63.21
2019-01-25T02:15:39.388Z,63.10
2019-01-25T02:16:39.399Z,63.21
2019-01-25T02:17:39.402Z,63.23
2019-01-25T02:18:39.344Z,63.34
2019-01-25T02:19:39.336Z,63.23
2019-01-25T02:20:39.347Z,63.10
2019-01-25T02:21:39.322Z,63.31
2019-01-25T02:22:39.323Z,63.34
2019-01-25T02:23:39.296Z,63.23
2019-01-25T02:24:39.295Z,63.31
2019-01-25T02:25:39.265Z,63.34
2019-01-25T02:26:39.259Z,63.34
2019-01-25T02:27:39.370Z,63.31
2019-01-25T02:28:39.266Z,63.31
2019-01-25T02:29:39.243Z,63.23
2019-01-25T02:30:39.251Z,63.10
2019-01-25T02:31:39.208Z,63.45
2019-01-25T02:32:39.463Z,63.23
2019-01-25T02:33:39.186Z,63.31
2019-01-25T02:34:39.186Z,63.45
2019-01-25T02:35:39.185Z,63.23
2019-01-25T02:36:39.151Z,62.92
2019-01-25T02:37:39.173Z,63.34
2019-01-25T02:38:39.438Z,63.21
2019-01-25T02:39:39.122Z,63.13
2019-01-25T02:40:39.472Z,63.21
2019-01-25T02:41:39.154Z,63.13
2019-01-25T02:42:39.105Z,62.92
2019-01-25T02:43:39.097Z,63.23
2019-01-25T02:44:39.069Z,63.73
2019-01-25T02:45:39.052Z,63.73
2019-01-25T02:46:39.045Z,63.65
2019-01-25T02:47:39.033Z,64.29
2019-01-25T02:48:39.033Z,64.07
2019-01-25T02:49:39.016Z,63.45
2019-01-25T02:50:38.999Z,63.10
2019-01-25T02:51:38.985Z,63.31
2019-01-25T02:52:38.970Z,63.23
2019-01-25T02:53:38.981Z,63.34
2019-01-25T02:54:38.961Z,63.76
2019-01-25T02:55:38.960Z,64.07
2019-01-25T02:56:38.940Z,63.73
2019-01-25T02:57:38.920Z,63.76
2019-01-25T02:58:38.932Z,64.36
2019-01-25T02:59:38.921Z,64.26
2019-01-25T03:00:38.888Z,64.18
2019-01-25T03:01:38.873Z,63.63
2019-01-25T03:02:38.868Z,63.63
2019-01-25T03:03:38.881Z,63.31
2019-01-25T03:04:38.840Z,63.21
2019-01-25T03:05:38.834Z,63.42
2019-01-25T03:06:38.822Z,63.42
2019-01-25T03:07:38.814Z,63.10
2019-01-25T03:08:38.819Z,63.28
2019-01-25T03:09:38.790Z,62.89
2019-01-25T03:10:46.829Z,62.68
2019-01-25T03:11:39.768Z,63.21
2019-01-25T03:12:38.752Z,62.89
2019-01-25T03:13:38.771Z,62.89
2019-01-25T03:14:38.748Z,63.21
2019-01-25T03:15:38.721Z,63.21
2019-01-25T03:16:38.717Z,62.99
2019-01-25T03:17:38.702Z,63.10
2019-01-25T03:18:38.726Z,62.89
2019-01-25T03:19:38.681Z,63.21
2019-01-25T03:20:38.679Z,63.21
2019-01-25T03:21:38.656Z,63.42
2019-01-25T03:22:38.644Z,63.21
2019-01-25T03:23:38.636Z,63.73
2019-01-25T03:24:38.640Z,63.52
2019-01-25T03:25:38.614Z,64.26
2019-01-25T03:26:38.599Z,63.73
2019-01-25T03:27:38.593Z,63.63
2019-01-25T03:28:38.583Z,64.15
2019-01-25T03:29:38.590Z,64.26
2019-01-25T03:30:38.580Z,64.15
2019-01-25T03:31:38.559Z,64.04
2019-01-25T03:32:38.538Z,64.18
2019-01-25T03:33:38.528Z,64.04
2019-01-25T03:34:38.532Z,64.04
2019-01-25T03:35:38.504Z,64.15
2019-01-25T03:36:38.494Z,63.52
2019-01-25T03:37:38.490Z,63.21
2019-01-25T03:38:38.520Z,63.52
2019-01-25T03:39:38.488Z,63.63
2019-01-25T03:40:38.454Z,64.29
2019-01-25T03:41:38.438Z,63.55
2019-01-25T03:42:38.436Z,63.97
2019-01-25T03:43:38.420Z,63.52
2019-01-25T03:44:38.478Z,63.84
2019-01-25T03:45:38.400Z,64.15
2019-01-25T03:46:38.386Z,63.94
2019-01-25T03:47:38.375Z,63.65
2019-01-25T03:48:38.368Z,63.63
2019-01-25T03:49:38.348Z,64.39
2019-01-25T03:50:38.370Z,63.73
2019-01-25T03:51:38.332Z,63.63
2019-01-25T03:52:38.316Z,63.84
2019-01-25T03:53:38.306Z,63.84
2019-01-25T03:54:38.298Z,63.63
2019-01-25T03:55:38.311Z,64.36
2019-01-25T03:56:38.282Z,63.87
2019-01-25T03:57:38.310Z,63.65
2019-01-25T03:58:38.250Z,63.73
2019-01-25T03:59:38.242Z,64.26
2019-01-25T04:00:38.251Z,64.36
2019-01-25T04:01:38.213Z,64.15
2019-01-25T04:02:38.212Z,63.73
2019-01-25T04:03:38.198Z,63.52
2019-01-25T04:04:38.207Z,63.63
2019-01-25T04:05:38.208Z,63.63
2019-01-25T04:06:38.172Z,63.84
2019-01-25T04:07:38.159Z,63.63
2019-01-25T04:08:38.158Z,64.15
2019-01-25T04:09:38.126Z,63.63
2019-01-25T04:10:38.154Z,63.52
2019-01-25T04:11:38.113Z,63.31
2019-01-25T04:12:38.099Z,63.23
2019-01-25T04:13:38.084Z,63.73
2019-01-25T04:14:38.082Z,64.36
2019-01-25T04:15:38.092Z,64.36
2019-01-25T04:16:38.053Z,64.36
2019-01-25T04:17:38.061Z,64.18
2019-01-25T04:18:38.032Z,63.84
2019-01-25T04:19:38.021Z,64.26
2019-01-25T04:20:38.085Z,63.73
2019-01-25T04:21:38.007Z,63.73
2019-01-25T04:22:37.984Z,63.63
2019-01-25T04:23:37.975Z,63.63
2019-01-25T04:24:37.969Z,64.26
2019-01-25T04:25:37.977Z,64.29
2019-01-25T04:26:37.947Z,64.36
2019-01-25T04:27:37.932Z,63.73
2019-01-25T04:28:37.923Z,63.52
2019-01-25T04:29:37.909Z,64.26
2019-01-25T04:30:37.956Z,63.63
2019-01-25T04:31:37.890Z,63.76
2019-01-25T04:32:37.875Z,63.55
2019-01-25T04:33:37.867Z,64.36
2019-01-25T04:34:37.867Z,64.60
2019-01-25T04:35:37.880Z,64.29
2019-01-25T04:36:37.877Z,63.97
2019-01-25T04:37:37.828Z,64.47
2019-01-25T04:38:37.833Z,64.36
2019-01-25T04:39:37.804Z,64.29
2019-01-25T04:40:37.797Z,64.47
2019-01-25T04:41:37.800Z,64.39
2019-01-25T04:42:37.769Z,64.57
2019-01-25T04:43:37.760Z,63.76
2019-01-25T04:44:37.752Z,63.52
2019-01-25T04:45:37.730Z,63.63
2019-01-25T04:46:37.742Z,63.84
2019-01-25T04:47:37.719Z,63.73
2019-01-25T04:48:37.704Z,63.94
2019-01-25T04:49:37.701Z,63.73
2019-01-25T04:50:37.699Z,64.26
2019-01-25T04:51:37.689Z,65.31
2019-01-25T04:52:37.663Z,71.68
2019-01-25T04:53:37.646Z,72.83
2019-01-25T04:54:37.643Z,68.85
2019-01-25T04:55:37.628Z,68.01
2019-01-25T04:56:37.636Z,67.58
2019-01-25T04:57:37.603Z,66.75
2019-01-25T04:58:37.603Z,66.43
2019-01-25T04:59:37.587Z,65.98
2019-01-25T05:00:37.571Z,66.72
2019-01-25T05:01:37.575Z,66.50
2019-01-25T05:02:37.559Z,65.64
2019-01-25T05:03:37.545Z,64.80
2019-01-25T05:04:37.532Z,64.80
2019-01-25T05:05:37.573Z,63.33
2019-01-25T05:06:37.522Z,63.23
2019-01-25T05:07:37.509Z,62.38
2019-01-25T05:08:37.483Z,62.60
2019-01-25T05:09:37.469Z,62.49
2019-01-25T05:10:37.466Z,62.49
2019-01-25T05:11:37.480Z,62.73
2019-01-25T05:12:37.469Z,63.15
2019-01-25T05:13:37.438Z,63.26
2019-01-25T05:14:37.416Z,62.94
2019-01-25T05:15:37.414Z,63.78
2019-01-25T05:16:37.417Z,63.70
2019-01-25T05:17:37.388Z,64.30
2019-01-25T05:18:37.385Z,64.23
2019-01-25T05:19:37.364Z,63.78
2019-01-25T05:20:37.351Z,63.81
2019-01-25T05:21:37.393Z,63.78
2019-01-25T05:22:37.334Z,63.67
2019-01-25T05:23:37.320Z,64.54
2019-01-25T05:24:37.307Z,64.96
2019-01-25T05:25:37.293Z,65.48
2019-01-25T05:26:37.316Z,64.89
2019-01-25T05:27:37.283Z,65.20
2019-01-25T05:28:37.261Z,65.09
2019-01-25T05:29:37.258Z,64.89
2019-01-25T05:30:37.237Z,64.96
2019-01-25T05:31:37.226Z,64.99
2019-01-25T05:32:37.264Z,64.75
2019-01-25T05:33:37.207Z,64.78
2019-01-25T05:34:37.194Z,65.52
2019-01-25T05:35:37.187Z,65.31
2019-01-25T05:36:37.175Z,65.52
2019-01-25T05:37:37.184Z,66.04
2019-01-25T05:38:37.154Z,66.56
2019-01-25T05:39:37.145Z,66.25
2019-01-25T05:40:37.133Z,66.25
2019-01-25T05:41:37.119Z,66.25
2019-01-25T05:42:37.126Z,66.25
2019-01-25T05:43:37.101Z,66.14
2019-01-25T05:44:37.085Z,66.14
2019-01-25T05:45:37.075Z,66.14
2019-01-25T05:46:37.058Z,66.25
2019-01-25T05:47:37.088Z,66.25
2019-01-25T05:48:37.040Z,66.14
2019-01-25T05:49:37.045Z,65.52
2019-01-25T05:50:37.026Z,65.62
2019-01-25T05:51:37.010Z,65.41
2019-01-25T05:52:36.999Z,65.20
2019-01-25T05:53:36.996Z,65.62
2019-01-25T05:54:36.980Z,65.94
2019-01-25T05:55:36.968Z,66.99
2019-01-25T05:56:36.964Z,67.23
2019-01-25T05:57:36.943Z,66.78
2019-01-25T05:58:36.958Z,66.60
2019-01-25T05:59:36.918Z,66.99
2019-01-25T06:00:36.916Z,67.09
2019-01-25T06:01:36.901Z,66.88
2019-01-25T06:02:36.892Z,66.88
2019-01-25T06:03:36.892Z,66.67
2019-01-25T06:04:36.866Z,66.78
2019-01-25T06:05:36.856Z,66.78
2019-01-25T06:06:36.852Z,66.43
2019-01-25T06:07:36.842Z,66.04
2019-01-25T06:08:43.622Z,66.01
2019-01-25T06:09:37.814Z,66.46
2019-01-25T06:10:36.799Z,66.46
2019-01-25T06:11:36.794Z,66.43
2019-01-25T06:12:36.796Z,65.70
2019-01-25T06:13:36.788Z,65.83
2019-01-25T06:14:36.780Z,65.17
2019-01-25T06:15:36.798Z,64.78
2019-01-25T06:16:36.736Z,65.09
2019-01-25T06:17:36.725Z,64.96
2019-01-25T06:18:36.747Z,65.07
2019-01-25T06:19:37.138Z,65.94
2019-01-25T06:20:36.707Z,65.62
2019-01-25T06:21:36.688Z,65.52
2019-01-25T06:22:36.670Z,65.76
2019-01-25T06:23:36.690Z,65.52
2019-01-25T06:24:36.678Z,65.41
2019-01-25T06:25:36.678Z,65.31
2019-01-25T06:26:36.633Z,65.62
2019-01-25T06:27:36.615Z,65.62
2019-01-25T06:28:36.602Z,66.14
2019-01-25T06:29:36.614Z,66.28
2019-01-25T06:30:36.584Z,66.14
2019-01-25T06:31:36.576Z,66.28
2019-01-25T06:32:36.562Z,66.49
2019-01-25T06:33:36.554Z,66.25
2019-01-25T06:34:36.568Z,66.49
2019-01-25T06:35:36.531Z,66.14
2019-01-25T06:36:36.513Z,66.25
2019-01-25T06:37:36.500Z,66.14
2019-01-25T06:38:36.491Z,66.39
2019-01-25T06:39:36.523Z,66.25
2019-01-25T06:40:36.474Z,67.02
2019-01-25T06:41:43.796Z,66.88
2019-01-25T06:42:37.447Z,67.02
2019-01-25T06:43:36.449Z,66.78
2019-01-25T06:44:36.443Z,66.67
2019-01-25T06:45:36.418Z,67.12
2019-01-25T06:46:36.413Z,67.33
2019-01-25T06:47:36.416Z,67.23
2019-01-25T06:48:36.382Z,66.99
2019-01-25T06:49:36.406Z,67.12
2019-01-25T06:50:36.367Z,67.23
2019-01-25T06:51:36.348Z,67.44
2019-01-25T06:52:36.342Z,67.12
2019-01-25T06:53:36.331Z,67.20
2019-01-25T06:54:36.323Z,67.23
2019-01-25T06:55:36.328Z,67.65
2019-01-25T06:56:36.298Z,67.02
2019-01-25T06:57:36.289Z,67.44
2019-01-25T06:58:36.272Z,67.44
2019-01-25T06:59:36.264Z,67.23
2019-01-25T07:00:36.280Z,67.30
2019-01-25T07:01:36.250Z,67.09
2019-01-25T07:02:36.229Z,67.23
2019-01-25T07:03:36.226Z,67.33
2019-01-25T07:04:36.206Z,67.33
2019-01-25T07:05:36.224Z,67.20
2019-01-25T07:06:36.196Z,67.30
2019-01-25T07:07:36.202Z,67.44
2019-01-25T07:08:36.167Z,66.99
2019-01-25T07:09:36.165Z,66.88
2019-01-25T07:10:36.167Z,66.81
2019-01-25T07:11:42.039Z,66.81
2019-01-25T07:12:37.122Z,67.12
2019-01-25T07:13:36.109Z,72.55
2019-01-25T07:14:36.097Z,78.39
2019-01-25T07:15:36.104Z,84.69
2019-01-25T07:16:36.097Z,83.29
2019-01-25T07:17:36.079Z,80.15
2019-01-25T07:18:36.062Z,78.96
2019-01-25T07:19:36.053Z,76.82
2019-01-25T07:20:36.047Z,75.74
2019-01-25T07:21:36.028Z,71.86
2019-01-25T07:22:36.013Z,68.51
2019-01-25T07:23:36.001Z,66.00
2019-01-25T07:24:36.006Z,64.81
2019-01-25T07:25:36.009Z,65.16
2019-01-25T07:26:35.970Z,64.42
2019-01-25T07:27:35.959Z,64.98
2019-01-25T07:28:35.946Z,65.30
2019-01-25T07:29:35.936Z,65.81
2019-01-25T07:30:35.960Z,65.71
2019-01-25T07:31:35.914Z,66.16
2019-01-25T07:32:35.920Z,65.95
2019-01-25T07:33:35.892Z,66.16
2019-01-25T07:34:35.885Z,66.27
2019-01-25T07:35:35.889Z,67.21
2019-01-25T07:36:35.889Z,67.94
2019-01-25T07:37:35.852Z,68.05
2019-01-25T07:38:35.872Z,68.05
2019-01-25T07:39:35.839Z,67.45
2019-01-25T07:40:35.833Z,68.18
2019-01-25T07:41:35.833Z,67.03
2019-01-25T07:42:35.796Z,67.14
2019-01-25T07:43:35.783Z,67.03
2019-01-25T07:44:35.768Z,68.18
2019-01-25T07:45:35.825Z,67.45
2019-01-25T07:46:35.792Z,67.35
2019-01-25T07:47:35.792Z,68.29
2019-01-25T07:48:35.756Z,67.17
2019-01-25T07:49:35.718Z,67.97
2019-01-25T07:50:35.723Z,68.53
2019-01-25T07:51:35.709Z,68.40
2019-01-25T07:52:35.688Z,68.11
2019-01-25T07:53:35.701Z,68.29
2019-01-25T07:54:35.668Z,68.01
2019-01-25T07:55:35.684Z,67.58
2019-01-25T07:56:35.687Z,67.66
2019-01-25T07:57:35.657Z,67.58
2019-01-25T07:58:35.625Z,67.69
2019-01-25T07:59:35.649Z,67.90
2019-01-25T08:00:35.618Z,67.80
2019-01-25T08:01:35.624Z,67.38
2019-01-25T08:02:35.572Z,68.01
2019-01-25T08:03:35.584Z,67.38
2019-01-25T08:04:35.609Z,67.27
2019-01-25T08:05:35.546Z,66.82
2019-01-25T08:06:35.550Z,66.85
2019-01-25T08:07:35.517Z,66.22
2019-01-25T08:08:35.511Z,65.91
2019-01-25T08:09:35.515Z,64.96
2019-01-25T08:10:35.500Z,64.43
2019-01-25T08:11:35.561Z,63.81
2019-01-25T08:12:35.478Z,63.18
2019-01-25T08:13:35.495Z,63.91
2019-01-25T08:14:35.463Z,63.78
2019-01-25T08:15:35.437Z,64.09
2019-01-25T08:16:35.469Z,64.20
2019-01-25T08:17:35.511Z,64.54
2019-01-25T08:18:35.418Z,64.83
2019-01-25T08:19:35.386Z,64.62
2019-01-25T08:20:35.428Z,65.14
2019-01-25T08:21:36.168Z,65.56
2019-01-25T08:22:35.372Z,66.19
2019-01-25T08:23:35.392Z,66.64
2019-01-25T08:24:35.550Z,67.17
2019-01-25T08:25:35.548Z,67.58
2019-01-25T08:26:35.428Z,67.66
2019-01-25T08:27:35.333Z,67.58
2019-01-25T08:28:35.338Z,67.38
2019-01-25T08:29:35.279Z,67.38
2019-01-25T08:30:35.267Z,67.06
2019-01-25T08:31:35.482Z,67.87
2019-01-25T08:32:35.265Z,68.43
2019-01-25T08:33:35.235Z,68.53
2019-01-25T08:34:35.258Z,68.74
2019-01-25T08:35:35.216Z,68.74
2019-01-25T08:36:35.203Z,69.26
2019-01-25T08:37:35.217Z,69.16
2019-01-25T08:38:35.200Z,68.95
2019-01-25T08:39:35.202Z,68.85
2019-01-25T08:40:35.200Z,69.58
2019-01-25T08:41:35.158Z,69.68
2019-01-25T08:42:35.179Z,69.58
2019-01-25T08:43:35.249Z,69.58
2019-01-25T08:44:35.118Z,69.48
2019-01-25T08:45:35.341Z,69.79
2019-01-25T08:46:35.125Z,69.79
2019-01-25T08:47:35.111Z,69.58
2019-01-25T08:48:35.117Z,69.61
2019-01-25T08:49:35.058Z,70.31
2019-01-25T08:50:35.321Z,70.31
2019-01-25T08:51:35.137Z,70.63
2019-01-25T08:52:35.141Z,70.76
2019-01-25T08:53:35.016Z,70.73
2019-01-25T08:54:35.015Z,70.87
2019-01-25T08:55:35.002Z,70.73
2019-01-25T08:56:35.000Z,70.95
2019-01-25T08:57:35.018Z,70.53
2019-01-25T08:58:35.956Z,70.56
2019-01-25T08:59:34.947Z,70.14
2019-01-25T09:00:34.936Z,70.35
2019-01-25T09:01:34.926Z,70.98
2019-01-25T09:02:34.939Z,70.76
2019-01-25T09:03:34.908Z,70.56
2019-01-25T09:04:34.905Z,70.56
2019-01-25T09:05:34.882Z,70.87
2019-01-25T09:06:34.872Z,70.87
2019-01-25T09:07:34.887Z,71.19
2019-01-25T09:08:34.851Z,70.56
2019-01-25T09:09:34.833Z,71.08
2019-01-25T09:10:34.829Z,70.98
2019-01-25T09:11:34.855Z,70.98
2019-01-25T09:12:34.813Z,71.40
2019-01-25T09:13:34.812Z,72.13
2019-01-25T09:14:34.794Z,71.81
2019-01-25T09:15:34.773Z,72.13
2019-01-25T09:16:34.774Z,72.03
2019-01-25T09:17:34.761Z,71.92
2019-01-25T09:18:34.775Z,72.34
2019-01-25T09:19:34.729Z,72.03
2019-01-25T09:20:34.739Z,71.61
2019-01-25T09:21:34.723Z,71.92
2019-01-25T09:22:34.700Z,72.34
2019-01-25T09:23:34.733Z,72.55
2019-01-25T09:24:34.675Z,72.13
2019-01-25T09:25:34.669Z,72.34
2019-01-25T09:26:34.650Z,72.45
2019-01-25T09:27:34.639Z,71.71
2019-01-25T09:28:34.641Z,71.81
2019-01-25T09:29:34.622Z,71.99
2019-01-25T09:30:34.623Z,72.76
2019-01-25T09:31:34.595Z,72.55
2019-01-25T09:32:34.583Z,72.86
2019-01-25T09:33:34.635Z,72.97
2019-01-25T09:34:34.563Z,73.39
2019-01-25T09:35:34.557Z,73.04
2019-01-25T09:36:34.543Z,72.55
2019-01-25T09:37:34.529Z,72.83
2019-01-25T09:38:34.530Z,72.76
2019-01-25T09:39:34.510Z,72.73
2019-01-25T09:40:34.503Z,72.52
2019-01-25T09:41:34.487Z,72.31
2019-01-25T09:42:34.511Z,71.68
2019-01-25T09:43:34.483Z,71.78
2019-01-25T09:44:34.447Z,72.31
2019-01-25T09:45:34.448Z,71.99
2019-01-25T09:46:34.427Z,71.89
2019-01-25T09:47:34.423Z,71.78
2019-01-25T09:48:34.460Z,71.99
2019-01-25T09:49:34.397Z,71.47
2019-01-25T09:50:34.412Z,72.10
2019-01-25T09:51:34.381Z,72.52
2019-01-25T09:52:34.416Z,72.63
2019-01-25T09:53:34.432Z,72.20
2019-01-25T09:54:34.384Z,72.41
2019-01-25T09:55:34.335Z,72.52
2019-01-25T09:56:34.350Z,72.52
2019-01-25T09:57:34.331Z,72.41
2019-01-25T09:58:34.298Z,72.52
2019-01-25T09:59:34.317Z,72.20
2019-01-25T10:00:34.278Z,71.89
2019-01-25T10:01:34.276Z,72.10
2019-01-25T10:02:34.260Z,72.31
2019-01-25T10:03:34.246Z,72.41
2019-01-25T10:04:34.289Z,72.31
2019-01-25T10:05:34.223Z,72.73
2019-01-25T10:06:34.218Z,71.89
2019-01-25T10:07:34.207Z,71.44
2019-01-25T10:08:34.201Z,71.75
2019-01-25T10:09:34.198Z,71.15
2019-01-25T10:10:34.177Z,70.73
2019-01-25T10:11:34.193Z,70.42
2019-01-25T10:12:38.821Z,70.84
2019-01-25T10:13:35.181Z,70.50
2019-01-25T10:14:34.151Z,70.91
2019-01-25T10:15:34.128Z,70.53
2019-01-25T10:16:34.206Z,70.28
2019-01-25T10:17:34.207Z,70.28
2019-01-25T10:18:34.087Z,69.26
2019-01-25T10:19:34.090Z,69.58
2019-01-25T10:20:34.079Z,69.26
2019-01-25T10:21:34.047Z,69.55
2019-01-25T10:22:34.041Z,69.16
2019-01-25T10:23:39.072Z,69.34
2019-01-25T10:24:35.042Z,69.23
2019-01-25T10:25:34.018Z,68.82
2019-01-25T10:26:34.002Z,69.23
2019-01-25T10:27:33.982Z,69.34
2019-01-25T10:28:33.984Z,69.23
2019-01-25T10:29:34.012Z,68.92
2019-01-25T10:30:33.967Z,67.24
2019-01-25T10:31:33.943Z,66.93
2019-01-25T10:32:33.942Z,66.82
2019-01-25T10:33:33.923Z,66.40
2019-01-25T10:34:33.907Z,66.61
2019-01-25T10:35:33.907Z,66.61
2019-01-25T10:36:33.894Z,67.14
2019-01-25T10:37:33.881Z,67.35
2019-01-25T10:38:33.856Z,67.24
2019-01-25T10:39:33.848Z,67.35
2019-01-25T10:40:33.879Z,67.14
2019-01-25T10:41:33.834Z,67.35
2019-01-25T10:42:33.864Z,67.94
2019-01-25T10:43:33.841Z,68.05
2019-01-25T10:44:33.798Z,67.11
2019-01-25T10:45:33.810Z,67.32
2019-01-25T10:46:33.778Z,66.89
2019-01-25T10:47:33.764Z,67.21
2019-01-25T10:48:33.791Z,67.32
2019-01-25T10:49:33.738Z,67.11
2019-01-25T10:50:33.748Z,67.00
2019-01-25T10:51:33.718Z,67.52
2019-01-25T10:52:33.711Z,67.42
2019-01-25T10:53:33.700Z,68.15
2019-01-25T10:54:33.696Z,67.32
2019-01-25T10:55:33.704Z,67.42
2019-01-25T10:56:33.673Z,68.05
2019-01-25T10:57:33.660Z,68.26
2019-01-25T10:58:33.643Z,67.74
2019-01-25T10:59:33.627Z,67.00
2019-01-25T11:00:33.638Z,67.32
2019-01-25T11:01:33.608Z,65.19
2019-01-25T11:02:33.603Z,62.91
2019-01-25T11:03:33.592Z,61.76
2019-01-25T11:04:33.590Z,61.13
2019-01-25T11:05:33.580Z,59.66
2019-01-25T11:06:33.556Z,59.63
2019-01-25T11:07:33.556Z,59.74
2019-01-25T11:08:33.533Z,59.63
2019-01-25T11:09:37.942Z,60.26
2019-01-25T11:10:33.573Z,59.84
2019-01-25T11:11:33.498Z,60.89
2019-01-25T11:12:33.508Z,59.63
2019-01-25T11:13:33.478Z,57.54
2019-01-25T11:14:33.472Z,57.54
2019-01-25T11:15:33.489Z,57.96
2019-01-25T11:16:33.444Z,57.64
2019-01-25T11:17:36.456Z,57.64
2019-01-25T11:18:33.430Z,57.54
2019-01-25T11:19:33.415Z,57.22
2019-01-25T11:20:33.414Z,55.86
2019-01-25T11:21:37.418Z,55.86
2019-01-25T11:22:33.379Z,55.96
2019-01-25T11:23:33.386Z,55.76
2019-01-25T11:24:33.381Z,55.23
2019-01-25T11:25:33.346Z,55.02
2019-01-25T11:26:33.360Z,55.02
2019-01-25T11:27:33.326Z,54.92
2019-01-25T11:28:33.315Z,54.37
2019-01-25T11:29:33.314Z,54.08
2019-01-25T11:30:33.297Z,54.58
2019-01-25T11:31:33.475Z,53.74
2019-01-25T11:32:33.270Z,53.85
2019-01-25T11:33:33.262Z,53.74
2019-01-25T11:34:33.254Z,52.80
2019-01-25T11:35:33.267Z,52.69
2019-01-25T11:36:33.260Z,53.19
2019-01-25T11:37:33.210Z,52.67
2019-01-25T11:38:33.208Z,53.50
2019-01-25T11:39:33.196Z,53.92
2019-01-25T11:40:33.196Z,54.00
2019-01-25T11:41:33.182Z,55.05
2019-01-25T11:42:33.180Z,54.13
2019-01-25T11:43:33.153Z,54.13
2019-01-25T11:44:33.147Z,54.32
2019-01-25T11:45:33.126Z,54.74
2019-01-25T11:46:33.115Z,54.94
2019-01-25T11:47:33.114Z,54.94
2019-01-25T11:48:33.106Z,55.44
2019-01-25T11:49:33.083Z,55.24
2019-01-25T11:50:33.095Z,54.61
2019-01-25T11:51:33.061Z,53.98
2019-01-25T11:52:33.066Z,54.61
2019-01-25T11:53:33.031Z,53.45
2019-01-25T11:54:33.027Z,53.98
2019-01-25T11:55:33.024Z,53.67
2019-01-25T11:56:32.999Z,52.41
2019-01-25T11:57:33.007Z,51.68
2019-01-25T11:58:32.979Z,51.89
2019-01-25T11:59:32.967Z,51.26
2019-01-25T12:00:32.957Z,50.95
2019-01-25T12:01:32.967Z,51.05
2019-01-25T12:02:32.954Z,52.10
2019-01-25T12:03:32.927Z,51.89
2019-01-25T12:04:32.907Z,52.31
2019-01-25T12:05:32.899Z,51.99
2019-01-25T12:06:32.893Z,52.10
2019-01-25T12:07:32.916Z,51.57
2019-01-25T12:08:32.859Z,51.76
2019-01-25T12:09:32.847Z,51.86
2019-01-25T12:10:32.845Z,51.97
2019-01-25T12:11:32.856Z,51.97
2019-01-25T12:12:32.818Z,52.31
2019-01-25T12:13:32.831Z,52.28
2019-01-25T12:14:32.795Z,52.15
2019-01-25T12:15:32.783Z,51.34
2019-01-25T12:16:32.773Z,51.21
2019-01-25T12:17:32.755Z,51.21
2019-01-25T12:18:32.888Z,51.11
2019-01-25T12:19:32.781Z,51.21
2019-01-25T12:20:32.728Z,50.90
2019-01-25T12:21:32.724Z,51.24
2019-01-25T12:22:32.776Z,51.13
2019-01-25T12:23:32.727Z,51.24
2019-01-25T12:24:32.725Z,51.26
2019-01-25T12:25:32.670Z,51.26
2019-01-25T12:26:32.691Z,50.95
2019-01-25T12:27:32.664Z,51.78
2019-01-25T12:28:32.661Z,50.97
2019-01-25T12:29:32.635Z,51.62
2019-01-25T12:30:37.571Z,51.81
2019-01-25T12:31:33.601Z,52.25
2019-01-25T12:32:32.595Z,52.14
2019-01-25T12:33:32.647Z,53.30
2019-01-25T12:34:32.571Z,52.46
2019-01-25T12:35:32.573Z,53.53
2019-01-25T12:36:32.550Z,53.53
2019-01-25T12:37:32.529Z,54.16
2019-01-25T12:38:32.543Z,54.89
2019-01-25T12:39:32.516Z,55.00
2019-01-25T12:40:32.503Z,54.16
2019-01-25T12:41:32.509Z,54.16
2019-01-25T12:42:32.476Z,54.58
2019-01-25T12:43:32.538Z,54.05
2019-01-25T12:44:32.459Z,54.26
2019-01-25T12:45:32.445Z,54.68
2019-01-25T12:46:32.459Z,54.89
2019-01-25T12:47:32.421Z,54.16
2019-01-25T12:48:32.429Z,53.95
2019-01-25T12:49:32.397Z,53.85
2019-01-25T12:50:32.405Z,54.16
2019-01-25T12:51:32.390Z,54.55
2019-01-25T12:52:32.374Z,54.89